createdAt,value
2022-12-03T00:01:34.225Z,93300.84
2022-12-03T00:04:38.284Z,93306.38
2022-12-03T00:07:41.933Z,93308.66
2022-12-03T00:10:45.971Z,93296.47
2022-12-03T00:13:49.251Z,93293.94
2022-12-03T00:16:53.236Z,93303.94
2022-12-03T00:19:56.623Z,93292.53
2022-12-03T00:22:59.603Z,93300.56
2022-12-03T00:26:03.654Z,93302.59
2022-12-03T00:29:06.614Z,93308.13
2022-12-03T00:32:09.954Z,93302.38
2022-12-03T00:35:12.828Z,93307.44
2022-12-03T00:38:16.432Z,93312.09
2022-12-03T00:41:19.434Z,93305.22
2022-12-03T00:44:23.470Z,93307.91
2022-12-03T00:47:27.247Z,93305.56
2022-12-03T00:50:31.277Z,93307.75
2022-12-03T00:53:34.287Z,93308.44
2022-12-03T00:56:37.278Z,93321.44
2022-12-03T00:59:41.039Z,93324.47
2022-12-03T01:02:44.957Z,93313.94
2022-12-03T01:05:49.164Z,93319.28
2022-12-03T01:08:52.539Z,93315.41
2022-12-03T01:11:56.358Z,93330.53
2022-12-03T01:14:59.966Z,93326.41
2022-12-03T01:18:04.070Z,93337.81
2022-12-03T01:21:07.755Z,93347.44
2022-12-03T01:24:12.475Z,93350.56
2022-12-03T01:27:16.261Z,93355.31
2022-12-03T01:30:20.467Z,93362.44
2022-12-03T01:33:24.151Z,93354.84
2022-12-03T01:36:28.011Z,93349.78
2022-12-03T01:39:31.579Z,93350.06
2022-12-03T01:42:40.692Z,93350.44
2022-12-03T01:45:44.468Z,93359.78
2022-12-03T01:48:50.224Z,93363.94
2022-12-03T01:51:55.433Z,93367.00
2022-12-03T01:55:02.175Z,93365.78
2022-12-03T01:58:05.615Z,93375.84
2022-12-03T02:01:14.984Z,93380.25
2022-12-03T02:04:23.188Z,93384.69
2022-12-03T02:07:32.566Z,93385.09
2022-12-03T02:10:38.325Z,93377.75
2022-12-03T02:13:43.465Z,93376.00
2022-12-03T02:16:47.762Z,93385.44
2022-12-03T02:19:51.363Z,93382.84
2022-12-03T02:23:07.302Z,93386.09
2022-12-03T02:26:11.592Z,93385.22
2022-12-03T02:29:14.971Z,93387.28
2022-12-03T02:32:20.295Z,93382.84
2022-12-03T02:35:27.256Z,93386.06
2022-12-03T02:38:33.283Z,93388.66
2022-12-03T02:41:55.209Z,93394.56
2022-12-03T02:45:05.442Z,93390.44
2022-12-03T02:48:18.589Z,93390.03
2022-12-03T02:51:22.641Z,93387.59
2022-12-03T02:54:26.611Z,93375.97
2022-12-03T02:57:31.266Z,93378.78
2022-12-03T03:00:36.056Z,93377.63
2022-12-03T03:03:40.901Z,93376.06
2022-12-03T03:06:44.804Z,93375.84
2022-12-03T03:09:48.839Z,93380.47
2022-12-03T03:12:54.613Z,93381.19
2022-12-03T03:15:59.081Z,93385.66
2022-12-03T03:19:03.151Z,93384.50
2022-12-03T03:22:07.124Z,93384.25
2022-12-03T03:25:14.142Z,93378.44
2022-12-03T03:28:18.733Z,93380.25
2022-12-03T03:31:24.494Z,93367.22
2022-12-03T03:34:29.692Z,93380.50
2022-12-03T03:37:33.877Z,93377.06
2022-12-03T03:40:38.170Z,93376.09
2022-12-03T03:43:43.885Z,93377.72
2022-12-03T03:46:49.372Z,93371.66
2022-12-03T03:49:53.975Z,93377.25
2022-12-03T03:52:59.431Z,93376.31
2022-12-03T03:56:02.963Z,93378.59
2022-12-03T03:59:06.883Z,93382.81
2022-12-03T04:02:25.702Z,93374.63
2022-12-03T04:05:29.656Z,93378.88
2022-12-03T04:08:33.922Z,93374.91
2022-12-03T04:11:55.969Z,93370.94
2022-12-03T04:14:59.799Z,93383.78
2022-12-03T04:18:22.009Z,93370.03
2022-12-03T04:21:44.540Z,93371.41
2022-12-03T04:24:48.214Z,93385.88
2022-12-03T04:28:10.585Z,93388.19
2022-12-03T04:31:32.938Z,93395.84
2022-12-03T04:48:40.342Z,93382.06
2022-12-03T04:51:44.111Z,93394.00
2022-12-03T04:54:48.461Z,93398.38
2022-12-03T04:57:52.552Z,93398.16
2022-12-03T05:00:56.379Z,93399.69
2022-12-03T05:04:00.129Z,93399.88
2022-12-03T05:07:04.284Z,93405.38
2022-12-03T05:10:09.643Z,93400.69
2022-12-03T05:13:13.325Z,93392.94
2022-12-03T05:16:17.824Z,93405.19
2022-12-03T05:19:21.505Z,93395.66
2022-12-03T05:22:24.522Z,93397.69
2022-12-03T05:25:27.454Z,93403.78
2022-12-03T05:28:30.855Z,93400.31
2022-12-03T05:31:33.956Z,93406.19
2022-12-03T05:34:37.219Z,93399.78
2022-12-03T05:37:40.239Z,93407.41
2022-12-03T05:40:44.209Z,93397.81
2022-12-03T05:43:47.798Z,93399.84
2022-12-03T05:46:51.016Z,93398.88
2022-12-03T05:49:53.925Z,93390.06
2022-12-03T05:52:59.015Z,93395.94
2022-12-03T05:56:02.379Z,93410.38
2022-12-03T05:59:06.397Z,93398.00
2022-12-03T06:02:09.930Z,93412.00
2022-12-03T06:05:15.450Z,93411.19
2022-12-03T06:08:18.654Z,93413.53
2022-12-03T06:11:22.066Z,93406.91
2022-12-03T06:14:26.336Z,93405.78
2022-12-03T06:17:30.200Z,93407.72
2022-12-03T06:20:33.888Z,93407.53
2022-12-03T06:23:38.285Z,93400.69
2022-12-03T06:26:41.648Z,93407.25
2022-12-03T06:29:45.742Z,93410.00
2022-12-03T06:32:49.324Z,93416.50
2022-12-03T06:35:53.319Z,93413.59
2022-12-03T06:38:56.421Z,93410.13
2022-12-03T06:41:59.442Z,93412.78
2022-12-03T06:45:02.824Z,93419.88
2022-12-03T06:48:06.760Z,93411.09
2022-12-03T06:51:09.833Z,93428.69
2022-12-03T06:54:13.880Z,93426.63
2022-12-03T06:57:17.726Z,93426.19
2022-12-03T07:00:21.989Z,93420.38
2022-12-03T07:03:25.048Z,93429.00
2022-12-03T07:06:29.017Z,93440.94
2022-12-03T07:09:31.992Z,93430.13
2022-12-03T07:12:35.902Z,93425.84
2022-12-03T07:15:39.436Z,93436.41
2022-12-03T07:18:42.707Z,93429.16
2022-12-03T07:21:46.502Z,93437.34
2022-12-03T07:24:49.563Z,93440.03
2022-12-03T07:27:53.360Z,93431.31
2022-12-03T07:30:57.167Z,93442.03
2022-12-03T07:34:00.656Z,93448.13
2022-12-03T07:37:03.764Z,93437.59
2022-12-03T07:40:08.229Z,93434.97
2022-12-03T07:43:12.003Z,93438.59
2022-12-03T07:46:16.093Z,93437.50
2022-12-03T07:49:19.846Z,93446.47
2022-12-03T07:52:23.256Z,93446.03
2022-12-03T07:55:26.646Z,93441.72
2022-12-03T07:58:30.029Z,93442.53
2022-12-03T08:05:03.633Z,93446.22
2022-12-03T08:08:06.923Z,93445.53
2022-12-03T08:11:17.675Z,93458.38
2022-12-03T08:14:21.542Z,93456.31
2022-12-03T08:17:25.347Z,93450.22
2022-12-03T08:20:32.437Z,93452.38
2022-12-03T08:23:37.678Z,93445.56
2022-12-03T08:26:42.556Z,93445.38
2022-12-03T08:29:47.395Z,93443.97
2022-12-03T08:32:52.152Z,93454.25
2022-12-03T08:35:56.687Z,93454.47
2022-12-03T08:39:03.127Z,93455.22
2022-12-03T08:42:36.921Z,93449.13
2022-12-03T08:45:43.027Z,93452.41
2022-12-03T08:48:49.459Z,93455.44
2022-12-03T08:52:02.262Z,93460.13
2022-12-03T08:55:36.405Z,93462.69
2022-12-03T08:58:45.209Z,93458.47
2022-12-03T09:01:50.124Z,93457.56
2022-12-03T09:04:55.463Z,93467.81
2022-12-03T09:07:58.785Z,93460.78
2022-12-03T09:11:01.965Z,93464.28
2022-12-03T09:14:07.076Z,93462.44
2022-12-03T09:17:10.251Z,93467.13
2022-12-03T09:20:14.334Z,93468.72
2022-12-03T09:23:17.757Z,93475.03
2022-12-03T09:26:21.832Z,93458.22
2022-12-03T09:29:26.308Z,93474.81
2022-12-03T09:32:30.294Z,93465.69
2022-12-03T09:35:33.347Z,93470.16
2022-12-03T09:38:37.059Z,93477.34
2022-12-03T09:41:41.186Z,93470.56
2022-12-03T09:44:45.329Z,93473.59
2022-12-03T09:47:50.663Z,93470.13
2022-12-03T09:50:54.606Z,93470.56
2022-12-03T09:54:01.654Z,93470.31
2022-12-03T09:57:05.284Z,93470.13
2022-12-03T10:00:19.718Z,93462.22
2022-12-03T10:03:30.049Z,93469.44
2022-12-03T10:06:33.540Z,93462.41
2022-12-03T10:09:37.559Z,93461.00
2022-12-03T10:12:40.750Z,93467.75
2022-12-03T10:15:44.133Z,93473.34
2022-12-03T10:18:56.939Z,93478.75
2022-12-03T10:22:00.469Z,93478.03
2022-12-03T10:25:10.683Z,93484.09
2022-12-03T10:28:27.146Z,93483.41
2022-12-03T10:31:37.269Z,93492.00
2022-12-03T10:34:42.358Z,93493.59
2022-12-03T10:38:18.245Z,93496.88
2022-12-03T10:41:25.057Z,93495.97
2022-12-03T10:44:31.033Z,93510.50
2022-12-03T10:47:34.883Z,93510.94
2022-12-03T10:50:38.465Z,93512.59
2022-12-03T10:53:43.270Z,93521.19
2022-12-03T10:56:48.202Z,93525.19
2022-12-03T10:59:52.190Z,93538.22
2022-12-03T11:02:57.224Z,93521.91
2022-12-03T11:06:02.551Z,93534.97
2022-12-03T11:09:14.683Z,93533.09
2022-12-03T11:12:27.061Z,93536.59
2022-12-03T11:15:44.827Z,93535.19
2022-12-03T11:18:52.031Z,93541.03
2022-12-03T11:22:06.937Z,93542.41
2022-12-03T11:25:26.290Z,93544.78
2022-12-03T11:28:34.898Z,93544.56
2022-12-03T11:31:45.645Z,93539.41
2022-12-03T11:34:49.203Z,93552.47
2022-12-03T11:37:52.728Z,93561.78
2022-12-03T11:41:19.644Z,93561.13
2022-12-03T11:44:33.034Z,93572.78
2022-12-03T11:47:44.318Z,93576.50
2022-12-03T11:50:54.692Z,93578.13
2022-12-03T11:54:00.600Z,93570.69
2022-12-03T11:57:04.053Z,93579.06
2022-12-03T12:00:20.892Z,93574.38
2022-12-03T12:03:33.328Z,93587.91
2022-12-03T12:06:51.648Z,93584.34
2022-12-03T12:09:57.846Z,93583.88
2022-12-03T12:13:01.289Z,93593.25
2022-12-03T12:16:08.458Z,93592.28
2022-12-03T12:19:39.523Z,93599.94
2022-12-03T12:22:43.293Z,93602.78
2022-12-03T12:25:53.804Z,93603.88
2022-12-03T12:29:13.609Z,93610.25
2022-12-03T12:32:19.172Z,93605.19
2022-12-03T12:35:28.590Z,93620.34
2022-12-03T12:38:33.453Z,93615.38
2022-12-03T12:41:37.446Z,93614.91
2022-12-03T12:44:40.390Z,93622.53
2022-12-03T12:47:58.417Z,93620.44
2022-12-03T12:51:20.207Z,93621.25
2022-12-03T12:54:24.441Z,93620.28
2022-12-03T12:57:28.072Z,93626.09
2022-12-03T13:00:31.222Z,93631.63
2022-12-03T13:03:37.612Z,93630.72
2022-12-03T13:06:41.796Z,93642.81
2022-12-03T13:09:45.505Z,93638.84
2022-12-03T13:12:49.120Z,93634.19
2022-12-03T13:16:12.461Z,93639.06
2022-12-03T13:19:46.716Z,93638.44
2022-12-03T13:22:51.386Z,93642.88
2022-12-03T13:26:06.319Z,93639.16
2022-12-03T13:29:19.272Z,93641.31
2022-12-03T13:32:35.100Z,93641.25
2022-12-03T13:35:40.363Z,93639.75
2022-12-03T13:38:46.122Z,93643.81
2022-12-03T13:42:08.500Z,93645.28
2022-12-03T13:45:18.047Z,93653.72
2022-12-03T13:48:30.020Z,93652.13
2022-12-03T13:51:34.259Z,93652.28
2022-12-03T13:54:39.837Z,93644.50
2022-12-03T13:57:43.819Z,93652.34
2022-12-03T14:00:47.727Z,93658.63
2022-12-03T14:03:51.712Z,93662.81
2022-12-03T14:06:55.319Z,93656.47
2022-12-03T14:09:59.114Z,93666.13
2022-12-03T14:13:02.793Z,93662.44
2022-12-03T14:16:07.040Z,93653.78
2022-12-03T14:19:10.408Z,93660.44
2022-12-03T14:22:14.378Z,93662.34
2022-12-03T14:25:18.142Z,93679.88
2022-12-03T14:28:22.915Z,93669.78
2022-12-03T14:31:28.450Z,93679.47
2022-12-03T14:34:32.179Z,93679.31
2022-12-03T14:37:35.866Z,93683.28
2022-12-03T14:40:39.376Z,93673.81
2022-12-03T14:43:43.162Z,93686.06
2022-12-03T14:46:47.500Z,93676.50
2022-12-03T14:49:52.924Z,93682.44
2022-12-03T14:52:57.259Z,93693.53
2022-12-03T14:56:00.692Z,93679.03
2022-12-03T14:59:04.342Z,93682.03
2022-12-03T15:02:09.439Z,93685.31
2022-12-03T15:05:13.190Z,93674.09
2022-12-03T15:08:17.179Z,93687.63
2022-12-03T15:11:20.628Z,93676.81
2022-12-03T15:14:25.410Z,93691.25
2022-12-03T15:17:32.003Z,93684.00
2022-12-03T15:20:36.169Z,93697.56
2022-12-03T15:23:40.518Z,93696.94
2022-12-03T15:26:44.177Z,93690.19
2022-12-03T15:29:48.358Z,93681.94
2022-12-03T15:32:52.203Z,93688.47
2022-12-03T15:35:55.935Z,93698.50
2022-12-03T15:38:59.543Z,93709.69
2022-12-03T15:42:03.692Z,93708.31
2022-12-03T15:45:11.941Z,93699.22
2022-12-03T15:48:18.458Z,93709.22
2022-12-03T15:51:22.256Z,93701.78
2022-12-03T15:54:25.584Z,93715.28
2022-12-03T15:57:30.178Z,93711.56
2022-12-03T16:00:33.600Z,93716.97
2022-12-03T16:03:36.904Z,93716.88
2022-12-03T16:06:40.657Z,93724.44
2022-12-03T16:09:43.947Z,93730.97
2022-12-03T16:12:47.466Z,93729.97
2022-12-03T16:15:51.099Z,93726.38
2022-12-03T16:18:54.973Z,93725.94
2022-12-03T16:21:58.626Z,93715.97
2022-12-03T16:25:04.147Z,93709.91
2022-12-03T16:28:08.037Z,93708.59
2022-12-03T16:31:11.249Z,93710.75
2022-12-03T16:34:15.633Z,93717.44
2022-12-03T16:37:18.812Z,93713.56
2022-12-03T16:40:26.472Z,93701.84
2022-12-03T16:43:36.307Z,93711.81
2022-12-03T16:46:39.714Z,93703.50
2022-12-03T16:49:43.516Z,93706.94
2022-12-03T16:52:48.495Z,93709.63
2022-12-03T16:55:52.344Z,93708.69
2022-12-03T16:58:56.412Z,93710.25
2022-12-03T17:02:00.082Z,93710.59
2022-12-03T17:05:04.451Z,93716.84
2022-12-03T17:08:07.916Z,93724.56
2022-12-03T17:11:11.207Z,93721.31
2022-12-03T17:14:15.421Z,93728.88
2022-12-03T17:17:19.175Z,93724.56
2022-12-03T17:20:22.504Z,93735.22
2022-12-03T17:23:26.281Z,93738.34
2022-12-03T17:26:29.966Z,93743.78
2022-12-03T17:29:33.732Z,93747.63
2022-12-03T17:32:37.227Z,93734.34
2022-12-03T17:35:40.820Z,93746.13
2022-12-03T17:38:44.894Z,93734.56
2022-12-03T17:41:48.595Z,93726.63
2022-12-03T17:44:52.368Z,93732.69
2022-12-03T17:47:55.457Z,93719.63
2022-12-03T17:51:02.389Z,93729.13
2022-12-03T17:54:05.778Z,93731.84
2022-12-03T17:57:09.875Z,93724.19
2022-12-03T18:00:13.781Z,93722.97
2022-12-03T18:03:18.156Z,93727.88
2022-12-03T18:06:21.945Z,93724.56
2022-12-03T18:09:25.937Z,93728.03
2022-12-03T18:12:29.655Z,93729.88
2022-12-03T18:15:33.495Z,93736.00
2022-12-03T18:18:36.783Z,93733.28
2022-12-03T18:21:41.497Z,93728.72
2022-12-03T18:24:47.618Z,93726.75
2022-12-03T18:27:54.266Z,93740.72
2022-12-03T18:31:00.235Z,93749.25
2022-12-03T18:34:04.239Z,93746.31
2022-12-03T18:37:07.237Z,93760.38
2022-12-03T18:40:18.651Z,93762.06
2022-12-03T18:43:21.686Z,93762.19
2022-12-03T18:46:51.971Z,93775.31
2022-12-03T18:49:50.110Z,93771.19
2022-12-03T18:52:53.822Z,93776.88
2022-12-03T18:55:57.549Z,93788.94
2022-12-03T18:59:00.612Z,93774.16
2022-12-03T19:02:04.341Z,93781.44
2022-12-03T19:05:08.041Z,93778.38
2022-12-03T19:08:15.294Z,93778.59
2022-12-03T19:11:18.707Z,93764.97
2022-12-03T19:14:22.705Z,93763.31
2022-12-03T19:17:27.664Z,93759.75
2022-12-03T19:20:31.743Z,93763.53
2022-12-03T19:23:36.181Z,93762.50
2022-12-03T19:26:40.147Z,93763.00
2022-12-03T19:29:43.676Z,93767.66
2022-12-03T19:32:47.341Z,93774.13
2022-12-03T19:35:50.969Z,93766.03
2022-12-03T19:38:59.117Z,93775.56
2022-12-03T19:42:02.498Z,93778.56
2022-12-03T19:45:07.306Z,93777.88
2022-12-03T19:48:11.031Z,93771.59
2022-12-03T19:51:33.535Z,93772.50
2022-12-03T19:54:38.445Z,93773.25
2022-12-03T19:57:41.800Z,93756.44
2022-12-03T20:00:44.823Z,93742.59
2022-12-03T20:03:50.039Z,93738.16
2022-12-03T20:06:54.110Z,93738.94
2022-12-03T20:09:58.184Z,93727.72
2022-12-03T20:13:02.252Z,93725.16
2022-12-03T20:16:13.079Z,93727.69
2022-12-03T20:19:18.417Z,93725.88
2022-12-03T20:22:22.175Z,93734.00
2022-12-03T20:25:26.306Z,93741.00
2022-12-03T20:28:30.163Z,93743.47
2022-12-03T20:31:33.921Z,93742.97
2022-12-03T20:34:36.948Z,93742.25
2022-12-03T20:37:40.533Z,93752.75
2022-12-03T20:40:44.238Z,93746.75
2022-12-03T20:43:48.858Z,93753.16
2022-12-03T20:46:52.356Z,93750.78
2022-12-03T20:49:56.630Z,93747.38
2022-12-03T20:53:23.304Z,93751.81
2022-12-03T20:56:26.897Z,93758.09
2022-12-03T20:59:30.832Z,93762.63
2022-12-03T21:02:34.667Z,93752.88
2022-12-03T21:05:38.043Z,93756.09
2022-12-03T21:08:43.079Z,93765.19
2022-12-03T21:11:47.092Z,93764.25
2022-12-03T21:14:50.451Z,93764.41
2022-12-03T21:17:54.116Z,93767.25
2022-12-03T21:21:00.906Z,93757.81
2022-12-03T21:24:04.761Z,93769.03
2022-12-03T21:27:08.864Z,93771.59
2022-12-03T21:30:12.159Z,93769.34
2022-12-03T21:33:16.344Z,93767.50
2022-12-03T21:36:21.532Z,93765.09
2022-12-03T21:39:25.682Z,93767.22
2022-12-03T21:42:35.980Z,93782.44
2022-12-03T21:45:42.078Z,93770.81
2022-12-03T21:48:45.956Z,93767.34
2022-12-03T21:51:49.759Z,93765.22
2022-12-03T21:54:54.045Z,93776.25
2022-12-03T21:57:57.279Z,93760.44
2022-12-03T22:01:02.027Z,93768.75
2022-12-03T22:04:05.711Z,93769.50
2022-12-03T22:07:09.320Z,93779.63
2022-12-03T22:10:14.007Z,93785.91
2022-12-03T22:13:17.712Z,93780.44
2022-12-03T22:16:22.809Z,93774.94
2022-12-03T22:19:26.851Z,93776.81
2022-12-03T22:22:30.680Z,93779.19
2022-12-03T22:25:33.629Z,93786.94
2022-12-03T22:28:37.658Z,93788.88
2022-12-03T22:31:41.608Z,93787.09
2022-12-03T22:34:45.235Z,93788.47
2022-12-03T22:37:48.876Z,93789.00
2022-12-03T22:40:52.846Z,93784.38
2022-12-03T22:43:56.668Z,93783.31
2022-12-03T22:47:00.662Z,93791.19
2022-12-03T22:50:04.302Z,93791.00
2022-12-03T22:53:08.513Z,93791.25
2022-12-03T22:56:12.506Z,93792.69
2022-12-03T22:59:16.661Z,93801.78
2022-12-03T23:02:19.756Z,93803.03
2022-12-03T23:05:23.197Z,93805.59
2022-12-03T23:08:26.262Z,93796.25
2022-12-03T23:11:29.993Z,93806.75
2022-12-03T23:14:33.335Z,93806.09
2022-12-03T23:17:37.367Z,93811.63
2022-12-03T23:20:47.888Z,93822.63
2022-12-03T23:23:51.854Z,93819.16
2022-12-03T23:26:55.434Z,93819.03
2022-12-03T23:29:59.539Z,93808.41
2022-12-03T23:33:03.655Z,93814.19
2022-12-03T23:36:08.346Z,93809.81
2022-12-03T23:39:12.121Z,93812.59
2022-12-03T23:42:16.467Z,93818.97
2022-12-03T23:45:20.088Z,93822.72
2022-12-03T23:48:23.480Z,93829.97
2022-12-03T23:51:28.140Z,93826.78
2022-12-03T23:54:32.319Z,93833.41
2022-12-03T23:57:35.959Z,93839.47
